EDFM/MHG METAR and TAF weather

Enter ICAO airport designator
Station Type Date Time Source
EDFM METAR 2019/12/13 20:50 UTC NOAA

EDFM 132050Z 23010KT 9999 FEW028 SCT065 BKN079 07/02 Q0991


Station Type Date Time Source
EDFM Decoded METAR 2019/12/13 20:50 UTC NOAA

Baden Wurttemberg, Neuostheim, Germany (EDFM) 49-28-21N 008-30-56E
Dec 13, 2019 - 03:50 PM EST / 2019.12.13 2050 UTC
Wind: from the SW (230 degrees) at 12 MPH (10 KT):0
Visibility: greater than 7 mile(s):0
Sky conditions: mostly cloudy
Temperature: 44 F (7 C)
Dew Point: 35 F (2 C)
Relative Humidity: 70%
Pressure (altimeter): 29.26 in. Hg (0991 hPa)
ob: EDFM 132050Z 23010KT 9999 FEW028 SCT065 BKN079 07/02 Q0991
cycle: 21

Station Type Date Time Source
EDFM TAF 2012/03/06 06:30 UTC NOAA

TAF EDFM 060519Z 0606/0621 15004KT 9999 FEW040

Example: see airport list